METAR Data

Data at: 0252 UTC 23 Apr 2021

EDDW 230220Z 29009KT 9999 SCT017 BKN026 05/02 Q1026
EDDW 230150Z 29009KT 9999 BKN030 05/02 Q1026
EDDW 230120Z 28010KT 9999 BKN028 05/02 Q1025
EDDW 230050Z 28011KT 9999 BKN028 05/02 Q1025
EDDW 230020Z 29009KT 9999 BKN026 05/02 Q1025
EDDW 222350Z 29009KT 9999 FEW026 05/02 Q1025
EDDW 222320Z 30011KT 9999 BKN026 06/02 Q1025
EDDW 222250Z 29011KT 9999 BKN026 06/02 Q1026
EDDW 222220Z 30010KT 9999 BKN027 06/02 Q1025
EDDW 222150Z 29009KT 9999 BKN026 06/02 Q1025
EDDW 222120Z 29007KT 9999 BKN026 06/02 Q1025
EDDW 222050Z 30007KT 9999 SCT023 05/01 Q1026 NOSIG
EDDW 222020Z 30008KT 9999 FEW021 05/01 Q1026 NOSIG
EDDW 221950Z 30008KT 9999 FEW027 05/01 Q1025 NOSIG
EDDW 221920Z 30011KT 9999 FEW028 06/01 Q1025 NOSIG
EDDW 221850Z 31013KT 9999 FEW030 07/01 Q1025 NOSIG
EDDW 221820Z 31013KT 9999 FEW030 07/01 Q1025 TEMPO 31015G25KT
EDDW 221750Z 31014KT 280V340 9999 SCT035 08/M00 Q1025 TEMPO 31020G30KT
EDDW 221720Z 31017KT 9999 SCT035 09/M00 Q1025 TEMPO 31020G30KT
EDDW 221650Z 31018KT 9999 SCT037 10/00 Q1024 TEMPO 32020G30KT
EDDW 221620Z 31016KT 9999 FEW041 09/00 Q1024 TEMPO 32020G30KT
EDDW 221550Z 31018KT 290V350 9999 FEW042 10/M00 Q1024 TEMPO 32020G30KT
EDDW 221520Z 32016KT 9999 SCT038 10/M00 Q1024 TEMPO 32020G30KT
EDDW 221450Z 32018KT 290V350 9999 SCT038 11/00 Q1024 TEMPO 32020G30KT
EDDW 221420Z 31017KT 290V350 9999 SCT034 10/01 Q1024 TEMPO 32020G30KT
EDDW 221350Z 31017KT 290V350 9999 SCT035 10/01 Q1024 TEMPO 32020G30KT
EDDW 221320Z 31018KT 9999 BKN033 09/01 Q1024 TEMPO 32020G30KT
EDDW 221250Z 32015KT 290V350 9999 BKN034 09/00 Q1024 TEMPO 32020G30KT
EDDW 221220Z 30018KT 9999 BKN036 10/01 Q1024 TEMPO 32020G30KT
EDDW 221150Z 32015KT 300V360 9999 BKN036 09/00 Q1024 TEMPO 32020G30KT
EDDW 221120Z 33018KT 300V360 9999 BKN035 09/00 Q1023 TEMPO 32020G30KT
EDDW 221050Z 33018KT 300V010 9999 BKN035 09/00 Q1023 TEMPO 32020G30KT
EDDW 221020Z 33017KT 290V360 9999 SCT034 09/00 Q1023 TEMPO 32020G30KT
EDDW 220950Z 31016KT 9999 SCT034 09/00 Q1023 TEMPO 32020G30KT
EDDW 220920Z 31016KT 9999 SCT034 09/00 Q1023 TEMPO 32020G30KT
EDDW 220850Z 32017KT 300V360 9999 SCT032 08/M00 Q1023 TEMPO 32020G30KT
EDDW 220820Z 31018KT 9999 FEW030 BKN042 08/00 Q1023 TEMPO 30015G25KT
EDDW 220750Z 31016KT 9999 FEW029 BKN039 07/00 Q1023 TEMPO 30015G25KT
EDDW 220720Z 29014KT 9999 FEW024 SCT031 BKN041 07/01 Q1022 TEMPO 30015G25KT
EDDW 220650Z 30014KT 270V330 9999 FEW024 SCT031 BKN041 06/00 Q1022 TEMPO 30015G25KT
EDDW 220620Z 29012KT 9999 FEW024 BKN038 06/00 Q1022 NOSIG
EDDW 220550Z 29013KT 9999 FEW031 BKN037 06/00 Q1021 NOSIG
EDDW 220520Z 28009KT 9999 FEW029 BKN035 05/M00 Q1021 NOSIG
EDDW 220450Z 30008KT 9999 BKN037 05/M00 Q1021 NOSIG
EDDW 220420Z 30011KT 9999 -RA FEW025 BKN033 05/M00 Q1021 NOSIG
EDDW 220350Z 30009KT 9999 BKN028 05/M00 Q1021 NOSIG
EDDW 220320Z 29010KT 9999 BKN035 05/M00 Q1021
EDDW 220250Z 29010KT 9999 BKN032 05/M01 Q1021
EDDW 220220Z 29009KT 9999 BKN032 05/M01 Q1021
EDDW 220150Z 30008KT 9999 BKN032 05/00 Q1021
EDDW 220120Z 30009KT 9999 BKN028 05/00 Q1020
EDDW 220050Z 30010KT 9999 BKN028 05/00 Q1020
EDDW 220020Z 30009KT 9999 BKN028 05/M00 Q1020
EDDW 212350Z 29007KT 9999 SCT038 04/M01 Q1020
EDDW 212320Z 28006KT 9999 SCT038 04/M01 Q1020
EDDW 212250Z 30009KT 270V330 9999 BKN038 05/M01 Q1020
EDDW 212220Z 30009KT 9999 BKN038 06/M01 Q1020
EDDW 212150Z 30008KT 9999 BKN038 05/M01 Q1020
EDDW 212120Z 30009KT 9999 FEW038 05/M01 Q1020
EDDW 212050Z 30008KT 280V340 9999 BKN038 05/M01 Q1020 NOSIG
EDDW 212020Z 31011KT 9999 FEW038 06/M02 Q1020 NOSIG
EDDW 211950Z 32013KT CAVOK 06/M02 Q1020 NOSIG
EDDW 211920Z 33011KT 300V360 9999 FEW040 06/M01 Q1020 NOSIG
EDDW 211850Z 32014KT 9999 FEW028 07/M01 Q1019 TEMPO 33015G25KT
EDDW 211820Z 32014KT 9999 SCT038 07/M02 Q1019 TEMPO 33015G25KT
EDDW 211750Z 33017KT 9999 FEW032 07/M03 Q1019 TEMPO 33015G25KT
EDDW 211720Z 34016KT 310V010 9999 FEW040 07/M00 Q1019 TEMPO 33015G25KT
EDDW 211650Z 33015KT 9999 SCT040 08/M01 Q1018 TEMPO 33015G25KT
EDDW 211620Z 33017KT 9999 SCT039 09/M01 Q1018 TEMPO 33015G25KT
EDDW 211550Z 33016KT 9999 SCT039 10/00 Q1018 TEMPO 33015G25KT
EDDW 211520Z 33015KT 300V360 9999 SCT040 10/M00 Q1018 TEMPO 33015G25KT